sensor_id;sensor_type;location;lat;lon;timestamp;temperature;humidity
40085;DHT22;25786;51.504;7.344;2022-07-23T00:02:17;17.30;87.10
40085;DHT22;25786;51.504;7.344;2022-07-23T00:04:42;17.20;87.00
40085;DHT22;25786;51.504;7.344;2022-07-23T00:07:08;17.20;87.00
40085;DHT22;25786;51.504;7.344;2022-07-23T00:09:33;17.30;86.90
40085;DHT22;25786;51.504;7.344;2022-07-23T00:11:59;17.30;86.90
40085;DHT22;25786;51.504;7.344;2022-07-23T00:14:24;17.30;87.30
40085;DHT22;25786;51.504;7.344;2022-07-23T00:16:50;17.30;87.00
40085;DHT22;25786;51.504;7.344;2022-07-23T00:19:15;17.40;87.00
40085;DHT22;25786;51.504;7.344;2022-07-23T00:21:41;17.50;87.20
40085;DHT22;25786;51.504;7.344;2022-07-23T00:24:06;17.40;87.20
40085;DHT22;25786;51.504;7.344;2022-07-23T00:26:32;17.40;87.50
40085;DHT22;25786;51.504;7.344;2022-07-23T00:28:57;17.40;87.70
40085;DHT22;25786;51.504;7.344;2022-07-23T00:31:23;17.50;87.80
40085;DHT22;25786;51.504;7.344;2022-07-23T00:33:48;17.30;87.30
40085;DHT22;25786;51.504;7.344;2022-07-23T00:36:14;17.30;87.80
40085;DHT22;25786;51.504;7.344;2022-07-23T00:38:39;17.40;87.70
40085;DHT22;25786;51.504;7.344;2022-07-23T00:41:05;17.30;87.70
40085;DHT22;25786;51.504;7.344;2022-07-23T00:43:30;17.40;88.00
40085;DHT22;25786;51.504;7.344;2022-07-23T00:45:56;17.40;87.80
40085;DHT22;25786;51.504;7.344;2022-07-23T00:48:21;17.50;87.60
40085;DHT22;25786;51.504;7.344;2022-07-23T00:50:47;17.40;87.70
40085;DHT22;25786;51.504;7.344;2022-07-23T00:53:12;17.20;87.40
40085;DHT22;25786;51.504;7.344;2022-07-23T00:55:38;17.30;87.70
40085;DHT22;25786;51.504;7.344;2022-07-23T00:58:03;17.40;87.60
40085;DHT22;25786;51.504;7.344;2022-07-23T01:00:29;17.40;87.60
40085;DHT22;25786;51.504;7.344;2022-07-23T01:02:55;17.30;87.60
40085;DHT22;25786;51.504;7.344;2022-07-23T01:05:20;17.30;87.60
40085;DHT22;25786;51.504;7.344;2022-07-23T01:07:50;17.30;87.80
40085;DHT22;25786;51.504;7.344;2022-07-23T01:10:16;17.30;87.60
40085;DHT22;25786;51.504;7.344;2022-07-23T01:12:57;17.40;87.50
40085;DHT22;25786;51.504;7.344;2022-07-23T01:15:23;17.30;87.80
40085;DHT22;25786;51.504;7.344;2022-07-23T01:17:49;17.30;88.00
40085;DHT22;25786;51.504;7.344;2022-07-23T01:20:14;17.30;88.50
40085;DHT22;25786;51.504;7.344;2022-07-23T01:22:40;17.30;88.60
40085;DHT22;25786;51.504;7.344;2022-07-23T01:25:05;17.30;88.00
40085;DHT22;25786;51.504;7.344;2022-07-23T01:27:31;17.30;87.80
40085;DHT22;25786;51.504;7.344;2022-07-23T01:29:57;17.30;88.20
40085;DHT22;25786;51.504;7.344;2022-07-23T01:32:22;17.30;87.90
40085;DHT22;25786;51.504;7.344;2022-07-23T01:34:48;17.30;88.30
40085;DHT22;25786;51.504;7.344;2022-07-23T01:37:13;17.20;88.20
40085;DHT22;25786;51.504;7.344;2022-07-23T01:39:39;17.20;88.20
40085;DHT22;25786;51.504;7.344;2022-07-23T01:42:04;17.20;87.70
40085;DHT22;25786;51.504;7.344;2022-07-23T01:44:30;17.20;87.90
40085;DHT22;25786;51.504;7.344;2022-07-23T01:46:56;17.20;88.40
40085;DHT22;25786;51.504;7.344;2022-07-23T01:49:21;17.20;88.50
40085;DHT22;25786;51.504;7.344;2022-07-23T01:51:47;17.20;88.70
40085;DHT22;25786;51.504;7.344;2022-07-23T01:54:28;17.20;88.60
40085;DHT22;25786;51.504;7.344;2022-07-23T01:56:54;17.20;88.30
40085;DHT22;25786;51.504;7.344;2022-07-23T01:59:19;17.20;88.50
40085;DHT22;25786;51.504;7.344;2022-07-23T02:01:45;17.20;88.40
40085;DHT22;25786;51.504;7.344;2022-07-23T02:04:10;17.20;88.20
40085;DHT22;25786;51.504;7.344;2022-07-23T02:06:36;17.20;88.20
40085;DHT22;25786;51.504;7.344;2022-07-23T02:09:01;17.10;88.50
40085;DHT22;25786;51.504;7.344;2022-07-23T02:11:27;17.20;88.60
40085;DHT22;25786;51.504;7.344;2022-07-23T02:13:52;17.20;88.40
40085;DHT22;25786;51.504;7.344;2022-07-23T02:16:18;17.30;88.20
40085;DHT22;25786;51.504;7.344;2022-07-23T02:18:43;17.30;88.10
40085;DHT22;25786;51.504;7.344;2022-07-23T02:21:09;17.10;88.20
40085;DHT22;25786;51.504;7.344;2022-07-23T02:23:35;17.20;88.10
40085;DHT22;25786;51.504;7.344;2022-07-23T02:26:00;17.20;88.30
40085;DHT22;25786;51.504;7.344;2022-07-23T02:28:28;17.30;88.40
40085;DHT22;25786;51.504;7.344;2022-07-23T02:30:53;17.20;88.30
40085;DHT22;25786;51.504;7.344;2022-07-23T02:33:19;17.20;88.60
40085;DHT22;25786;51.504;7.344;2022-07-23T02:35:44;17.20;88.80
40085;DHT22;25786;51.504;7.344;2022-07-23T02:38:10;17.20;88.50
40085;DHT22;25786;51.504;7.344;2022-07-23T02:40:35;17.10;88.50
40085;DHT22;25786;51.504;7.344;2022-07-23T02:43:01;17.10;88.60
40085;DHT22;25786;51.504;7.344;2022-07-23T02:45:26;17.00;88.90
40085;DHT22;25786;51.504;7.344;2022-07-23T02:47:52;17.10;88.40
40085;DHT22;25786;51.504;7.344;2022-07-23T02:50:17;17.00;88.20
40085;DHT22;25786;51.504;7.344;2022-07-23T02:52:42;16.90;88.50
40085;DHT22;25786;51.504;7.344;2022-07-23T02:55:08;16.90;88.60
40085;DHT22;25786;51.504;7.344;2022-07-23T02:57:34;16.90;88.00
40085;DHT22;25786;51.504;7.344;2022-07-23T02:59:59;16.80;88.40
40085;DHT22;25786;51.504;7.344;2022-07-23T03:02:25;16.80;88.30
40085;DHT22;25786;51.504;7.344;2022-07-23T03:04:50;16.60;88.40
40085;DHT22;25786;51.504;7.344;2022-07-23T03:07:16;16.60;88.50
40085;DHT22;25786;51.504;7.344;2022-07-23T03:09:42;16.50;89.00
40085;DHT22;25786;51.504;7.344;2022-07-23T03:12:07;16.50;89.20
40085;DHT22;25786;51.504;7.344;2022-07-23T03:14:33;16.50;89.40
40085;DHT22;25786;51.504;7.344;2022-07-23T03:16:58;16.50;89.40
40085;DHT22;25786;51.504;7.344;2022-07-23T03:19:25;16.50;89.40
40085;DHT22;25786;51.504;7.344;2022-07-23T03:21:51;16.40;89.50
40085;DHT22;25786;51.504;7.344;2022-07-23T03:24:16;16.40;89.40
40085;DHT22;25786;51.504;7.344;2022-07-23T03:26:45;16.40;89.70
40085;DHT22;25786;51.504;7.344;2022-07-23T03:29:10;16.40;89.70
40085;DHT22;25786;51.504;7.344;2022-07-23T03:31:36;16.50;89.60
40085;DHT22;25786;51.504;7.344;2022-07-23T03:34:01;16.50;89.60
40085;DHT22;25786;51.504;7.344;2022-07-23T03:36:27;16.50;89.50
40085;DHT22;25786;51.504;7.344;2022-07-23T03:38:52;16.50;88.70
40085;DHT22;25786;51.504;7.344;2022-07-23T03:41:18;16.40;88.90
40085;DHT22;25786;51.504;7.344;2022-07-23T03:43:44;16.30;89.30
40085;DHT22;25786;51.504;7.344;2022-07-23T03:46:09;16.30;89.70
40085;DHT22;25786;51.504;7.344;2022-07-23T03:48:35;16.30;89.20
40085;DHT22;25786;51.504;7.344;2022-07-23T03:51:00;16.30;89.40
40085;DHT22;25786;51.504;7.344;2022-07-23T03:53:26;16.30;89.70
40085;DHT22;25786;51.504;7.344;2022-07-23T03:55:51;16.30;89.70
40085;DHT22;25786;51.504;7.344;2022-07-23T03:58:17;16.20;89.70
40085;DHT22;25786;51.504;7.344;2022-07-23T04:00:42;16.20;89.80
40085;DHT22;25786;51.504;7.344;2022-07-23T04:03:08;16.20;89.60
40085;DHT22;25786;51.504;7.344;2022-07-23T04:05:33;16.20;89.60
40085;DHT22;25786;51.504;7.344;2022-07-23T04:07:59;16.10;89.60
40085;DHT22;25786;51.504;7.344;2022-07-23T04:10:24;16.10;89.60
40085;DHT22;25786;51.504;7.344;2022-07-23T04:12:50;16.10;89.40
40085;DHT22;25786;51.504;7.344;2022-07-23T04:15:15;16.10;89.50
40085;DHT22;25786;51.504;7.344;2022-07-23T04:17:41;16.10;89.40
40085;DHT22;25786;51.504;7.344;2022-07-23T04:20:06;16.20;89.30
40085;DHT22;25786;51.504;7.344;2022-07-23T04:22:32;16.20;89.40
40085;DHT22;25786;51.504;7.344;2022-07-23T04:24:57;16.20;89.10
40085;DHT22;25786;51.504;7.344;2022-07-23T04:27:23;16.20;89.00
40085;DHT22;25786;51.504;7.344;2022-07-23T04:29:49;16.20;88.60
40085;DHT22;25786;51.504;7.344;2022-07-23T04:32:14;16.20;88.40
40085;DHT22;25786;51.504;7.344;2022-07-23T04:34:40;16.20;88.30
40085;DHT22;25786;51.504;7.344;2022-07-23T04:37:05;16.10;88.60
40085;DHT22;25786;51.504;7.344;2022-07-23T04:39:31;16.10;88.20
40085;DHT22;25786;51.504;7.344;2022-07-23T04:41:56;16.10;88.60
40085;DHT22;25786;51.504;7.344;2022-07-23T04:44:22;16.10;88.30
40085;DHT22;25786;51.504;7.344;2022-07-23T04:46:47;16.10;88.30
40085;DHT22;25786;51.504;7.344;2022-07-23T04:49:13;16.10;88.40
40085;DHT22;25786;51.504;7.344;2022-07-23T04:51:38;16.10;88.70
40085;DHT22;25786;51.504;7.344;2022-07-23T04:54:04;16.10;88.50
40085;DHT22;25786;51.504;7.344;2022-07-23T04:56:29;16.20;88.60
40085;DHT22;25786;51.504;7.344;2022-07-23T04:58:55;16.30;88.60
40085;DHT22;25786;51.504;7.344;2022-07-23T05:01:20;16.20;88.90
40085;DHT22;25786;51.504;7.344;2022-07-23T05:03:46;16.20;89.00
40085;DHT22;25786;51.504;7.344;2022-07-23T05:06:13;16.20;89.20
40085;DHT22;25786;51.504;7.344;2022-07-23T05:08:39;16.30;89.20
40085;DHT22;25786;51.504;7.344;2022-07-23T05:11:04;16.40;89.10
40085;DHT22;25786;51.504;7.344;2022-07-23T05:13:30;16.30;89.00
40085;DHT22;25786;51.504;7.344;2022-07-23T05:15:55;16.30;89.10
40085;DHT22;25786;51.504;7.344;2022-07-23T05:18:21;16.40;88.90
40085;DHT22;25786;51.504;7.344;2022-07-23T05:20:46;16.50;88.80
40085;DHT22;25786;51.504;7.344;2022-07-23T05:23:12;16.60;88.60
40085;DHT22;25786;51.504;7.344;2022-07-23T05:25:37;16.50;88.40
40085;DHT22;25786;51.504;7.344;2022-07-23T05:28:03;16.60;88.50
40085;DHT22;25786;51.504;7.344;2022-07-23T05:30:30;16.60;88.60
40085;DHT22;25786;51.504;7.344;2022-07-23T05:32:56;16.60;89.00
40085;DHT22;25786;51.504;7.344;2022-07-23T05:35:21;16.70;89.00
40085;DHT22;25786;51.504;7.344;2022-07-23T05:37:47;16.60;89.10
40085;DHT22;25786;51.504;7.344;2022-07-23T05:40:12;16.60;89.30
40085;DHT22;25786;51.504;7.344;2022-07-23T05:42:38;16.70;89.10
40085;DHT22;25786;51.504;7.344;2022-07-23T05:45:04;16.60;89.00
40085;DHT22;25786;51.504;7.344;2022-07-23T05:47:43;16.80;88.90
40085;DHT22;25786;51.504;7.344;2022-07-23T05:50:09;16.80;88.60
40085;DHT22;25786;51.504;7.344;2022-07-23T05:52:35;16.90;88.50
40085;DHT22;25786;51.504;7.344;2022-07-23T05:55:00;17.00;88.70
40085;DHT22;25786;51.504;7.344;2022-07-23T05:57:26;17.10;89.00
40085;DHT22;25786;51.504;7.344;2022-07-23T05:59:51;17.10;89.00
40085;DHT22;25786;51.504;7.344;2022-07-23T06:02:17;17.20;89.00
40085;DHT22;25786;51.504;7.344;2022-07-23T06:04:42;17.50;88.90
40085;DHT22;25786;51.504;7.344;2022-07-23T06:07:08;17.50;88.20
40085;DHT22;25786;51.504;7.344;2022-07-23T06:09:33;17.60;88.30
40085;DHT22;25786;51.504;7.344;2022-07-23T06:11:58;17.60;88.20
40085;DHT22;25786;51.504;7.344;2022-07-23T06:14:24;17.50;87.20
40085;DHT22;25786;51.504;7.344;2022-07-23T06:16:52;17.70;87.20
40085;DHT22;25786;51.504;7.344;2022-07-23T06:19:17;17.80;87.20
40085;DHT22;25786;51.504;7.344;2022-07-23T06:21:43;17.90;87.00
40085;DHT22;25786;51.504;7.344;2022-07-23T06:24:08;18.10;86.70
40085;DHT22;25786;51.504;7.344;2022-07-23T06:26:34;18.10;86.60
40085;DHT22;25786;51.504;7.344;2022-07-23T06:29:01;18.10;86.20
40085;DHT22;25786;51.504;7.344;2022-07-23T06:31:27;18.20;85.90
40085;DHT22;25786;51.504;7.344;2022-07-23T06:33:53;18.20;85.50
40085;DHT22;25786;51.504;7.344;2022-07-23T06:36:18;18.10;85.50
40085;DHT22;25786;51.504;7.344;2022-07-23T06:38:43;17.90;85.90
40085;DHT22;25786;51.504;7.344;2022-07-23T06:41:09;17.90;86.10
40085;DHT22;25786;51.504;7.344;2022-07-23T06:43:34;17.90;86.30
40085;DHT22;25786;51.504;7.344;2022-07-23T06:46:00;18.10;85.60
40085;DHT22;25786;51.504;7.344;2022-07-23T06:48:25;18.10;85.20
40085;DHT22;25786;51.504;7.344;2022-07-23T06:50:51;18.20;85.70
40085;DHT22;25786;51.504;7.344;2022-07-23T06:53:17;18.40;85.00
40085;DHT22;25786;51.504;7.344;2022-07-23T06:55:43;18.50;84.00
40085;DHT22;25786;51.504;7.344;2022-07-23T06:58:08;18.60;84.00
40085;DHT22;25786;51.504;7.344;2022-07-23T07:00:35;18.70;84.70
40085;DHT22;25786;51.504;7.344;2022-07-23T07:03:01;18.90;84.20
40085;DHT22;25786;51.504;7.344;2022-07-23T07:05:26;19.00;83.90
40085;DHT22;25786;51.504;7.344;2022-07-23T07:07:55;18.90;83.20
40085;DHT22;25786;51.504;7.344;2022-07-23T07:10:21;18.70;83.10
40085;DHT22;25786;51.504;7.344;2022-07-23T07:12:46;18.60;83.80
40085;DHT22;25786;51.504;7.344;2022-07-23T07:15:12;18.60;84.10
40085;DHT22;25786;51.504;7.344;2022-07-23T07:17:37;18.60;84.40
40085;DHT22;25786;51.504;7.344;2022-07-23T07:20:03;18.60;84.00
40085;DHT22;25786;51.504;7.344;2022-07-23T07:22:29;18.80;82.80
40085;DHT22;25786;51.504;7.344;2022-07-23T07:24:54;18.80;83.20
40085;DHT22;25786;51.504;7.344;2022-07-23T07:27:19;18.90;82.10
40085;DHT22;25786;51.504;7.344;2022-07-23T07:29:45;18.90;81.60
40085;DHT22;25786;51.504;7.344;2022-07-23T07:32:10;18.90;82.10
40085;DHT22;25786;51.504;7.344;2022-07-23T07:34:36;19.00;82.10
40085;DHT22;25786;51.504;7.344;2022-07-23T07:37:01;19.10;81.60
40085;DHT22;25786;51.504;7.344;2022-07-23T07:39:27;19.00;80.70
40085;DHT22;25786;51.504;7.344;2022-07-23T07:41:52;18.90;80.50
40085;DHT22;25786;51.504;7.344;2022-07-23T07:44:18;19.00;80.10
40085;DHT22;25786;51.504;7.344;2022-07-23T07:46:43;19.10;79.60
40085;DHT22;25786;51.504;7.344;2022-07-23T07:49:09;19.10;80.60
40085;DHT22;25786;51.504;7.344;2022-07-23T07:51:34;19.00;79.70
40085;DHT22;25786;51.504;7.344;2022-07-23T07:54:00;19.10;81.50
40085;DHT22;25786;51.504;7.344;2022-07-23T07:56:25;19.30;77.10
40085;DHT22;25786;51.504;7.344;2022-07-23T07:58:50;19.30;77.20
40085;DHT22;25786;51.504;7.344;2022-07-23T08:01:16;19.20;75.70
40085;DHT22;25786;51.504;7.344;2022-07-23T08:03:42;19.20;77.30
40085;DHT22;25786;51.504;7.344;2022-07-23T08:06:07;19.20;77.50
40085;DHT22;25786;51.504;7.344;2022-07-23T08:08:33;19.30;76.60
40085;DHT22;25786;51.504;7.344;2022-07-23T08:10:59;19.40;75.70
40085;DHT22;25786;51.504;7.344;2022-07-23T08:13:24;19.50;74.70
40085;DHT22;25786;51.504;7.344;2022-07-23T08:15:49;19.50;74.30
40085;DHT22;25786;51.504;7.344;2022-07-23T08:18:15;19.50;73.90
40085;DHT22;25786;51.504;7.344;2022-07-23T08:20:41;19.50;72.90
40085;DHT22;25786;51.504;7.344;2022-07-23T08:23:07;19.70;74.40
40085;DHT22;25786;51.504;7.344;2022-07-23T08:25:34;19.90;72.60
40085;DHT22;25786;51.504;7.344;2022-07-23T08:28:00;20.00;72.00
40085;DHT22;25786;51.504;7.344;2022-07-23T08:30:26;20.10;71.20
40085;DHT22;25786;51.504;7.344;2022-07-23T08:35:17;20.10;70.70
40085;DHT22;25786;51.504;7.344;2022-07-23T08:37:43;20.20;71.70
40085;DHT22;25786;51.504;7.344;2022-07-23T08:40:08;20.30;71.60
40085;DHT22;25786;51.504;7.344;2022-07-23T08:42:34;20.20;73.70
40085;DHT22;25786;51.504;7.344;2022-07-23T08:45:03;20.10;73.10
40085;DHT22;25786;51.504;7.344;2022-07-23T08:47:29;20.10;70.50
40085;DHT22;25786;51.504;7.344;2022-07-23T08:49:55;19.90;69.80
40085;DHT22;25786;51.504;7.344;2022-07-23T08:52:22;19.90;71.70
40085;DHT22;25786;51.504;7.344;2022-07-23T08:54:47;20.10;71.50
40085;DHT22;25786;51.504;7.344;2022-07-23T08:57:13;20.20;72.50
40085;DHT22;25786;51.504;7.344;2022-07-23T08:59:39;20.30;70.90
40085;DHT22;25786;51.504;7.344;2022-07-23T09:02:05;20.20;72.40
40085;DHT22;25786;51.504;7.344;2022-07-23T09:04:30;20.20;71.30
40085;DHT22;25786;51.504;7.344;2022-07-23T09:06:56;20.20;68.20
40085;DHT22;25786;51.504;7.344;2022-07-23T09:09:22;20.30;68.70
40085;DHT22;25786;51.504;7.344;2022-07-23T09:12:01;20.30;66.80
40085;DHT22;25786;51.504;7.344;2022-07-23T09:14:38;20.10;68.90
40085;DHT22;25786;51.504;7.344;2022-07-23T09:19:35;20.10;69.10
40085;DHT22;25786;51.504;7.344;2022-07-23T09:22:20;20.20;67.40
40085;DHT22;25786;51.504;7.344;2022-07-23T09:28:12;20.30;64.30
40085;DHT22;25786;51.504;7.344;2022-07-23T09:30:19;20.40;65.30
40085;DHT22;25786;51.504;7.344;2022-07-23T09:32:56;20.40;67.00
40085;DHT22;25786;51.504;7.344;2022-07-23T09:35:44;20.30;66.30
40085;DHT22;25786;51.504;7.344;2022-07-23T09:38:10;20.50;66.40
40085;DHT22;25786;51.504;7.344;2022-07-23T09:40:36;20.80;65.30
40085;DHT22;25786;51.504;7.344;2022-07-23T09:43:01;20.90;64.40
40085;DHT22;25786;51.504;7.344;2022-07-23T09:45:27;20.90;64.00
40085;DHT22;25786;51.504;7.344;2022-07-23T09:47:55;20.80;64.60
40085;DHT22;25786;51.504;7.344;2022-07-23T09:50:34;20.80;65.20
40085;DHT22;25786;51.504;7.344;2022-07-23T09:53:00;20.80;65.10
40085;DHT22;25786;51.504;7.344;2022-07-23T09:55:30;20.90;64.70
40085;DHT22;25786;51.504;7.344;2022-07-23T09:57:59;21.00;64.40
40085;DHT22;25786;51.504;7.344;2022-07-23T10:00:24;21.00;64.20
40085;DHT22;25786;51.504;7.344;2022-07-23T10:02:50;20.90;64.70
40085;DHT22;25786;51.504;7.344;2022-07-23T10:05:16;20.90;65.00
40085;DHT22;25786;51.504;7.344;2022-07-23T10:07:42;20.90;65.00
40085;DHT22;25786;51.504;7.344;2022-07-23T10:10:09;21.10;63.10
40085;DHT22;25786;51.504;7.344;2022-07-23T10:12:35;21.10;63.00
40085;DHT22;25786;51.504;7.344;2022-07-23T10:15:10;21.00;63.20
40085;DHT22;25786;51.504;7.344;2022-07-23T10:17:36;21.10;62.60
40085;DHT22;25786;51.504;7.344;2022-07-23T10:20:01;21.00;64.80
40085;DHT22;25786;51.504;7.344;2022-07-23T10:22:31;21.10;64.60
40085;DHT22;25786;51.504;7.344;2022-07-23T10:24:59;21.10;62.50
40085;DHT22;25786;51.504;7.344;2022-07-23T10:35:29;21.20;63.10
40085;DHT22;25786;51.504;7.344;2022-07-23T10:38:00;21.20;62.40
40085;DHT22;25786;51.504;7.344;2022-07-23T10:40:26;21.10;62.60
40085;DHT22;25786;51.504;7.344;2022-07-23T10:42:54;21.20;62.20
40085;DHT22;25786;51.504;7.344;2022-07-23T10:45:36;21.20;61.50
40085;DHT22;25786;51.504;7.344;2022-07-23T10:48:12;21.30;61.40
40085;DHT22;25786;51.504;7.344;2022-07-23T10:50:38;21.40;61.10
40085;DHT22;25786;51.504;7.344;2022-07-23T10:57:58;21.40;58.70
40085;DHT22;25786;51.504;7.344;2022-07-23T11:00:25;21.20;60.60
40085;DHT22;25786;51.504;7.344;2022-07-23T11:02:51;21.50;59.80
40085;DHT22;25786;51.504;7.344;2022-07-23T11:05:40;21.50;59.90
40085;DHT22;25786;51.504;7.344;2022-07-23T11:10:32;21.60;60.50
40085;DHT22;25786;51.504;7.344;2022-07-23T11:26:47;22.00;59.00
40085;DHT22;25786;51.504;7.344;2022-07-23T11:31:58;22.10;57.20
40085;DHT22;25786;51.504;7.344;2022-07-23T11:36:53;22.10;55.70
40085;DHT22;25786;51.504;7.344;2022-07-23T11:39:18;22.30;54.10
40085;DHT22;25786;51.504;7.344;2022-07-23T11:41:45;22.10;55.80
40085;DHT22;25786;51.504;7.344;2022-07-23T11:46:58;22.40;53.80
40085;DHT22;25786;51.504;7.344;2022-07-23T11:49:24;22.20;55.80
40085;DHT22;25786;51.504;7.344;2022-07-23T11:52:03;22.30;56.10
40085;DHT22;25786;51.504;7.344;2022-07-23T11:54:30;22.30;56.40
40085;DHT22;25786;51.504;7.344;2022-07-23T11:56:59;22.50;54.40
40085;DHT22;25786;51.504;7.344;2022-07-23T11:59:30;22.60;53.20
40085;DHT22;25786;51.504;7.344;2022-07-23T12:01:57;22.40;54.80
40085;DHT22;25786;51.504;7.344;2022-07-23T12:04:23;22.70;53.60
40085;DHT22;25786;51.504;7.344;2022-07-23T12:06:48;22.80;53.70
40085;DHT22;25786;51.504;7.344;2022-07-23T12:09:14;22.90;53.80
40085;DHT22;25786;51.504;7.344;2022-07-23T12:11:39;22.90;53.80
40085;DHT22;25786;51.504;7.344;2022-07-23T12:14:21;23.00;53.90
40085;DHT22;25786;51.504;7.344;2022-07-23T12:16:46;23.00;54.20
40085;DHT22;25786;51.504;7.344;2022-07-23T12:19:11;23.00;52.90
40085;DHT22;25786;51.504;7.344;2022-07-23T12:21:38;22.80;54.20
40085;DHT22;25786;51.504;7.344;2022-07-23T12:24:07;22.90;53.80
40085;DHT22;25786;51.504;7.344;2022-07-23T12:26:32;23.00;53.50
40085;DHT22;25786;51.504;7.344;2022-07-23T12:28:58;23.10;52.90
40085;DHT22;25786;51.504;7.344;2022-07-23T12:31:26;23.00;55.10
40085;DHT22;25786;51.504;7.344;2022-07-23T12:33:52;23.20;52.70
40085;DHT22;25786;51.504;7.344;2022-07-23T12:36:17;23.30;52.80
40085;DHT22;25786;51.504;7.344;2022-07-23T12:38:46;23.60;52.00
40085;DHT22;25786;51.504;7.344;2022-07-23T12:41:12;23.70;50.90
40085;DHT22;25786;51.504;7.344;2022-07-23T12:43:42;23.80;51.30
40085;DHT22;25786;51.504;7.344;2022-07-23T12:46:42;23.90;50.30
40085;DHT22;25786;51.504;7.344;2022-07-23T12:49:00;23.90;50.90
40085;DHT22;25786;51.504;7.344;2022-07-23T12:51:30;23.60;50.70
40085;DHT22;25786;51.504;7.344;2022-07-23T12:53:58;23.60;50.60
40085;DHT22;25786;51.504;7.344;2022-07-23T12:56:28;23.70;51.00
40085;DHT22;25786;51.504;7.344;2022-07-23T12:58:55;23.70;51.00
40085;DHT22;25786;51.504;7.344;2022-07-23T13:04:22;23.60;50.40
40085;DHT22;25786;51.504;7.344;2022-07-23T13:06:44;23.60;50.80
40085;DHT22;25786;51.504;7.344;2022-07-23T13:09:12;23.80;51.00
40085;DHT22;25786;51.504;7.344;2022-07-23T13:11:38;23.60;50.70
40085;DHT22;25786;51.504;7.344;2022-07-23T13:14:04;23.60;50.80
40085;DHT22;25786;51.504;7.344;2022-07-23T13:16:30;23.60;50.70
40085;DHT22;25786;51.504;7.344;2022-07-23T13:18:56;23.60;51.00
40085;DHT22;25786;51.504;7.344;2022-07-23T13:21:22;23.80;51.70
40085;DHT22;25786;51.504;7.344;2022-07-23T13:23:47;23.80;50.90
40085;DHT22;25786;51.504;7.344;2022-07-23T13:26:13;24.00;50.00
40085;DHT22;25786;51.504;7.344;2022-07-23T13:28:38;23.90;49.30
40085;DHT22;25786;51.504;7.344;2022-07-23T13:31:03;23.90;49.70
40085;DHT22;25786;51.504;7.344;2022-07-23T13:33:29;24.00;50.40
40085;DHT22;25786;51.504;7.344;2022-07-23T13:35:55;24.10;49.00
40085;DHT22;25786;51.504;7.344;2022-07-23T13:38:21;24.00;49.50
40085;DHT22;25786;51.504;7.344;2022-07-23T13:40:47;23.80;50.00
40085;DHT22;25786;51.504;7.344;2022-07-23T13:43:14;23.90;50.00
40085;DHT22;25786;51.504;7.344;2022-07-23T13:45:40;23.80;50.60
40085;DHT22;25786;51.504;7.344;2022-07-23T13:48:08;23.90;49.20
40085;DHT22;25786;51.504;7.344;2022-07-23T13:50:34;23.90;49.70
40085;DHT22;25786;51.504;7.344;2022-07-23T13:53:06;24.00;49.10
40085;DHT22;25786;51.504;7.344;2022-07-23T13:55:32;24.00;48.50
40085;DHT22;25786;51.504;7.344;2022-07-23T13:57:58;23.80;48.10
40085;DHT22;25786;51.504;7.344;2022-07-23T14:00:24;23.80;48.70
40085;DHT22;25786;51.504;7.344;2022-07-23T14:02:49;23.90;49.30
40085;DHT22;25786;51.504;7.344;2022-07-23T14:05:15;23.90;49.30
40085;DHT22;25786;51.504;7.344;2022-07-23T14:07:40;24.00;49.80
40085;DHT22;25786;51.504;7.344;2022-07-23T14:10:08;24.10;48.90
40085;DHT22;25786;51.504;7.344;2022-07-23T14:12:33;24.20;48.70
40085;DHT22;25786;51.504;7.344;2022-07-23T14:14:59;24.30;49.30
40085;DHT22;25786;51.504;7.344;2022-07-23T14:17:25;24.30;47.90
40085;DHT22;25786;51.504;7.344;2022-07-23T14:19:50;24.30;48.50
40085;DHT22;25786;51.504;7.344;2022-07-23T14:22:16;24.40;48.70
40085;DHT22;25786;51.504;7.344;2022-07-23T14:24:41;24.50;48.20
40085;DHT22;25786;51.504;7.344;2022-07-23T14:27:07;24.50;47.80
40085;DHT22;25786;51.504;7.344;2022-07-23T14:29:32;24.50;47.40
40085;DHT22;25786;51.504;7.344;2022-07-23T14:31:58;24.50;48.50
40085;DHT22;25786;51.504;7.344;2022-07-23T14:34:24;24.60;48.20
40085;DHT22;25786;51.504;7.344;2022-07-23T14:36:50;24.70;47.70
40085;DHT22;25786;51.504;7.344;2022-07-23T14:39:15;24.80;45.60
40085;DHT22;25786;51.504;7.344;2022-07-23T14:41:41;24.70;46.00
40085;DHT22;25786;51.504;7.344;2022-07-23T14:44:06;24.50;46.90
40085;DHT22;25786;51.504;7.344;2022-07-23T14:46:32;24.50;46.50
40085;DHT22;25786;51.504;7.344;2022-07-23T14:48:57;24.60;47.90
40085;DHT22;25786;51.504;7.344;2022-07-23T14:51:23;24.60;47.00
40085;DHT22;25786;51.504;7.344;2022-07-23T14:53:48;24.80;46.60
40085;DHT22;25786;51.504;7.344;2022-07-23T14:56:14;24.90;47.10
40085;DHT22;25786;51.504;7.344;2022-07-23T14:58:40;24.90;46.20
40085;DHT22;25786;51.504;7.344;2022-07-23T15:01:05;24.80;46.40
40085;DHT22;25786;51.504;7.344;2022-07-23T15:03:31;24.70;47.50
40085;DHT22;25786;51.504;7.344;2022-07-23T15:05:57;24.80;47.80
40085;DHT22;25786;51.504;7.344;2022-07-23T15:08:22;24.90;47.30
40085;DHT22;25786;51.504;7.344;2022-07-23T15:10:47;25.00;47.00
40085;DHT22;25786;51.504;7.344;2022-07-23T15:13:13;25.10;46.50
40085;DHT22;25786;51.504;7.344;2022-07-23T15:15:38;25.20;46.30
40085;DHT22;25786;51.504;7.344;2022-07-23T15:18:04;25.40;45.70
40085;DHT22;25786;51.504;7.344;2022-07-23T15:20:30;25.50;45.30
40085;DHT22;25786;51.504;7.344;2022-07-23T15:22:56;25.50;46.00
40085;DHT22;25786;51.504;7.344;2022-07-23T15:25:21;25.60;45.50
40085;DHT22;25786;51.504;7.344;2022-07-23T15:27:47;25.30;46.20
40085;DHT22;25786;51.504;7.344;2022-07-23T15:30:12;25.10;45.80
40085;DHT22;25786;51.504;7.344;2022-07-23T15:32:38;25.00;45.60
40085;DHT22;25786;51.504;7.344;2022-07-23T15:35:04;24.90;46.80
40085;DHT22;25786;51.504;7.344;2022-07-23T15:37:32;25.00;47.30
40085;DHT22;25786;51.504;7.344;2022-07-23T15:39:57;25.00;45.90
40085;DHT22;25786;51.504;7.344;2022-07-23T15:42:23;25.20;46.50
40085;DHT22;25786;51.504;7.344;2022-07-23T15:44:49;25.50;44.60
40085;DHT22;25786;51.504;7.344;2022-07-23T15:47:15;25.50;45.00
40085;DHT22;25786;51.504;7.344;2022-07-23T15:49:41;25.40;44.90
40085;DHT22;25786;51.504;7.344;2022-07-23T15:52:06;25.40;45.30
40085;DHT22;25786;51.504;7.344;2022-07-23T15:54:32;25.30;44.40
40085;DHT22;25786;51.504;7.344;2022-07-23T15:56:57;25.30;45.30
40085;DHT22;25786;51.504;7.344;2022-07-23T15:59:23;25.40;45.30
40085;DHT22;25786;51.504;7.344;2022-07-23T16:01:48;25.40;45.60
40085;DHT22;25786;51.504;7.344;2022-07-23T16:04:14;25.50;45.80
40085;DHT22;25786;51.504;7.344;2022-07-23T16:06:39;25.50;45.60
40085;DHT22;25786;51.504;7.344;2022-07-23T16:09:06;25.50;44.90
40085;DHT22;25786;51.504;7.344;2022-07-23T16:11:32;25.70;45.30
40085;DHT22;25786;51.504;7.344;2022-07-23T16:13:57;25.80;45.10